Startpagina
METAR-TAF:

METAR-TAF

Vliegvelden :

Cerklje ob Krki, Slovenië

breedte: 45-53-59N, lengte: 15-30-55E, hoogte: 157 m

Actueel weer

Dit bericht is 36 minuten geleden gemaakt, om 23:00 UTC
Wind 1 kt uit variabele richting
Temperatuur 19°C
Vochtigheid 88%
Druk 1019 hPa
Zicht 10 km of meer

METAR: LJCE 182300Z AUTO VRB01KT 9999 NCD 19/17 Q1019

Tijdstip: 01:36 (23:36 UTC)

Verwachting

Dit bericht is 3 uur en het 36 minuten geleden gemaakt, om 20:00 UTC
Verwachting geldig van 18 om 21 UTC tot 19 om 06 UTC
Wind 2 kt uit variabele richting
Zicht 10 km of meer
geen wolken onder 1500 m en geen cumulonimbus

TAF: LJCE 182000Z 1821/1906 VRB02KT CAVOK

Waarnemingen en weersverwachtingen van meer dan 4000 vliegvelden (METAR en TAF).

De beschikbare stations zijn de gele en rode punten op de kaart.

Ga met uw muis naar het station om de naam te zien.

Klik dan om waarnemingen en weersverwachtingen te zien.

kaart wijzigen: klik op de groene knoppen met een zwart kruis om in te zoomen, op de groene knop met een streepje om uit te zoomen of op de groene pijlen voor aangrenzende kaarten.


METAR-TAF: